Emmanuel Tomasos — C6SS7 — position and weather

sailwx.info

Track history (hours):
 
Tides and Currents Weather Stations Pressure Air Temp Water Temp Dewpoint Dewpoint Depression Visibility Wind Speed Wind Dir Waves Ship Positions

Emmanuel Tomasos

Last reported at 2018-Jan-21 10:00 UTC. Time now 2018-Jan-21 10:26 UTC.
Position N 00°05' W 050°59'.

Length 182 m; draft 10.2 m.

Type: Tanker. MMSI: 311459000.

Date/timePositionNaut miles runAvg speedWind from/ knotsBaromVisibWave heightAir tempDewpointWater temp
2018-Jan-21 10:00N 00°05' W 050°59'713.9
2018-Jan-21 09:30N 00°10' W 050°54'185 7.5
2018-Jan-20 08:57S 00°09' W 047°50'511.2
2018-Jan-20 08:30S 00°13' W 047°47'510.8
2018-Jan-20 08:00S 00°19' W 047°48'510.6
2018-Jan-20 07:30S 00°23' W 047°45'2 5.0
2018-Jan-20 07:00S 00°23' W 047°43'5 9.2
2018-Jan-20 06:31S 00°21' W 047°38'611.6
2018-Jan-20 06:01S 00°19' W 047°33'612.3
2018-Jan-20 05:31S 00°16' W 047°28'612.3
2018-Jan-20 05:00S 00°13' W 047°22'  
Track history (hours):
 
Tides and Currents Weather Stations Pressure Air Temp Water Temp Dewpoint Dewpoint Depression Visibility Wind Speed Wind Dir Waves Ship Positions

Emmanuel Tomasos

Last reported at 2018-Jan-21 10:00 UTC. Time now 2018-Jan-21 10:26 UTC.
Position N 00°05' W 050°59'.

Length 182 m; draft 10.2 m.

Type: Tanker. MMSI: 311459000.

Date/timePositionNaut miles runAvg speedWind from/ knotsBaromVisibWave heightAir tempDewpointWater temp
2018-Jan-21 10:00N 00°05' W 050°59'713.9
2018-Jan-21 09:30N 00°10' W 050°54'185 7.5
2018-Jan-20 08:57S 00°09' W 047°50'511.2
2018-Jan-20 08:30S 00°13' W 047°47'510.8
2018-Jan-20 08:00S 00°19' W 047°48'510.6
2018-Jan-20 07:30S 00°23' W 047°45'2 5.0
2018-Jan-20 07:00S 00°23' W 047°43'5 9.2
2018-Jan-20 06:31S 00°21' W 047°38'611.6
2018-Jan-20 06:01S 00°19' W 047°33'612.3
2018-Jan-20 05:31S 00°16' W 047°28'612.3
2018-Jan-20 05:00S 00°13' W 047°22'  

Dump ship's entire track history